createdAt,value
2019-02-07T00:00:44.315Z,100824.70
2019-02-07T00:03:11.633Z,100826.00
2019-02-07T00:05:39.923Z,100819.89
2019-02-07T00:08:07.040Z,100816.43
2019-02-07T00:10:36.333Z,100809.03
2019-02-07T00:13:03.677Z,100807.72
2019-02-07T00:15:36.541Z,100798.14
2019-02-07T00:18:03.564Z,100796.83
2019-02-07T00:20:30.672Z,100793.34
2019-02-07T00:22:57.787Z,100783.36
2019-02-07T00:25:24.918Z,100779.00
2019-02-07T00:27:52.555Z,100778.56
2019-02-07T00:30:20.149Z,100774.20
2019-02-07T00:32:47.252Z,100765.93
2019-02-07T00:35:14.349Z,100763.31
2019-02-07T00:37:41.445Z,100762.02
2019-02-07T00:40:10.843Z,100753.73
2019-02-07T00:42:39.952Z,100748.95
2019-02-07T00:45:10.136Z,100750.26
2019-02-07T00:47:39.030Z,100748.09
2019-02-07T00:50:06.793Z,100745.05
2019-02-07T00:52:33.879Z,100738.95
2019-02-07T00:55:02.767Z,100732.84
2019-02-07T00:57:30.970Z,100736.77
2019-02-07T00:59:58.465Z,100729.82
2019-02-07T01:02:26.662Z,100723.27
2019-02-07T01:04:53.756Z,100726.75
2019-02-07T01:07:20.987Z,100712.81
2019-02-07T01:09:48.273Z,100708.03
2019-02-07T01:12:17.179Z,100705.00
2019-02-07T01:14:44.770Z,100707.61
2019-02-07T01:17:12.074Z,100708.45
2019-02-07T01:19:39.369Z,100709.33
2019-02-07T01:22:06.474Z,100711.06
2019-02-07T01:24:33.894Z,100714.98
2019-02-07T01:27:03.808Z,100711.06
2019-02-07T01:29:30.944Z,100705.00
2019-02-07T01:31:58.036Z,100704.09
2019-02-07T01:34:25.431Z,100706.30
2019-02-07T01:36:52.518Z,100705.00
2019-02-07T01:39:19.706Z,100701.95
2019-02-07T01:41:46.807Z,100702.81
2019-02-07T01:44:13.997Z,100701.08
2019-02-07T01:46:41.099Z,100701.08
2019-02-07T01:49:08.188Z,100696.70
2019-02-07T01:51:35.283Z,100689.30
2019-02-07T01:54:03.895Z,100688.02
2019-02-07T01:56:30.972Z,100692.79
2019-02-07T01:58:58.069Z,100695.86
2019-02-07T02:01:25.163Z,100691.50
2019-02-07T02:03:52.244Z,100694.10
2019-02-07T02:06:19.363Z,100684.98
2019-02-07T02:08:46.468Z,100681.47
2019-02-07T02:11:13.852Z,100684.09
2019-02-07T02:13:40.942Z,100675.83
2019-02-07T02:16:08.036Z,100682.37
2019-02-07T02:18:35.141Z,100677.98
2019-02-07T02:21:02.226Z,100670.17
2019-02-07T02:23:29.313Z,100661.89
2019-02-07T02:25:56.466Z,100659.26
2019-02-07T02:28:23.952Z,100668.42
2019-02-07T02:30:51.103Z,100666.67
2019-02-07T02:33:18.197Z,100664.08
2019-02-07T02:35:45.273Z,100666.67
2019-02-07T02:38:12.367Z,100665.81
2019-02-07T02:40:39.460Z,100654.91
2019-02-07T02:43:06.568Z,100657.52
2019-02-07T02:45:37.650Z,100649.27
2019-02-07T02:48:03.162Z,100644.91
2019-02-07T02:50:30.248Z,100646.20
2019-02-07T02:52:57.365Z,100650.13
2019-02-07T02:55:31.174Z,100651.89
2019-02-07T02:57:58.372Z,100648.38
2019-02-07T03:00:34.999Z,100651.02
2019-02-07T03:03:33.867Z,100641.87
2019-02-07T03:06:32.592Z,100644.04
2019-02-07T03:09:19.857Z,100639.70
2019-02-07T03:12:15.776Z,100638.83
2019-02-07T03:15:01.558Z,100637.51
2019-02-07T03:17:57.650Z,100642.75
2019-02-07T03:20:53.280Z,100642.29
2019-02-07T03:23:40.068Z,100637.95
2019-02-07T03:26:25.675Z,100640.98
2019-02-07T03:29:16.315Z,100627.50
2019-02-07T03:32:21.046Z,100626.19
2019-02-07T03:34:54.971Z,100621.84
2019-02-07T03:37:50.849Z,100621.38
2019-02-07T03:40:40.179Z,100628.80
2019-02-07T03:43:42.346Z,100630.10
2019-02-07T03:46:27.854Z,100620.96
2019-02-07T03:49:02.893Z,100617.47
2019-02-07T03:51:49.616Z,100630.09
2019-02-07T03:54:34.936Z,100626.63
2019-02-07T03:57:27.733Z,100626.63
2019-02-07T04:00:26.523Z,100622.70
2019-02-07T04:03:29.212Z,100616.59
2019-02-07T04:06:14.494Z,100618.77
2019-02-07T04:09:00.969Z,100610.50
2019-02-07T04:11:41.823Z,100610.95
2019-02-07T04:14:44.697Z,100612.25
2019-02-07T04:17:35.148Z,100620.09
2019-02-07T04:20:31.625Z,100617.03
2019-02-07T04:23:25.566Z,100614.01
2019-02-07T04:26:12.221Z,100622.27
2019-02-07T04:29:01.848Z,100615.31
2019-02-07T04:31:57.519Z,100605.72
2019-02-07T04:34:46.823Z,100607.91
2019-02-07T04:37:33.490Z,100603.10
2019-02-07T04:40:23.743Z,100603.12
2019-02-07T04:43:25.342Z,100608.33
2019-02-07T04:46:27.529Z,100601.38
2019-02-07T04:49:04.145Z,100601.80
2019-02-07T04:51:41.842Z,100609.64
2019-02-07T04:54:28.557Z,100604.41
2019-02-07T04:57:24.556Z,100597.44
2019-02-07T05:00:10.281Z,100597.86
2019-02-07T05:02:57.148Z,100598.76
2019-02-07T05:05:42.686Z,100596.13
2019-02-07T05:08:49.655Z,100596.13
2019-02-07T05:11:28.698Z,100592.66
2019-02-07T05:14:14.224Z,100590.04
2019-02-07T05:17:11.941Z,100597.86
2019-02-07T05:20:01.589Z,100587.41
2019-02-07T05:22:54.184Z,100594.41
2019-02-07T05:25:39.599Z,100600.49
2019-02-07T05:28:32.239Z,100606.14
2019-02-07T05:31:22.059Z,100602.66
2019-02-07T05:34:14.477Z,100611.38
2019-02-07T05:37:05.010Z,100613.11
2019-02-07T05:39:55.718Z,100609.20
2019-02-07T05:42:54.254Z,100606.58
2019-02-07T05:45:46.709Z,100605.29
2019-02-07T05:48:32.524Z,100610.94
2019-02-07T05:51:37.519Z,100612.67
2019-02-07T05:54:36.568Z,100615.74
2019-02-07T05:57:32.562Z,100612.69
2019-02-07T06:00:31.193Z,100618.78
2019-02-07T06:03:20.523Z,100624.43
2019-02-07T06:06:09.468Z,100626.20
2019-02-07T06:09:11.252Z,100624.43
2019-02-07T06:11:56.709Z,100620.09
2019-02-07T06:14:58.697Z,100616.59
2019-02-07T06:17:41.525Z,100617.48
2019-02-07T06:20:22.763Z,100615.29
2019-02-07T06:23:16.577Z,100617.46
2019-02-07T06:26:02.031Z,100617.04
2019-02-07T06:28:57.822Z,100621.40
2019-02-07T06:31:39.188Z,100626.61
2019-02-07T06:34:32.314Z,100620.52
2019-02-07T06:37:17.986Z,100618.77
2019-02-07T06:40:04.651Z,100626.17
2019-02-07T06:42:48.435Z,100627.48
2019-02-07T06:45:33.893Z,100630.97
2019-02-07T06:48:19.399Z,100627.48
2019-02-07T06:51:09.435Z,100637.48
2019-02-07T06:53:54.813Z,100642.73
2019-02-07T06:56:56.904Z,100639.23
2019-02-07T06:59:37.544Z,100633.16
2019-02-07T07:02:19.524Z,100641.85
2019-02-07T07:04:57.857Z,100632.72
2019-02-07T07:07:44.923Z,100624.00
2019-02-07T07:10:29.413Z,100631.84
2019-02-07T07:13:18.250Z,100630.95
2019-02-07T07:16:02.151Z,100641.86
2019-02-07T07:18:48.918Z,100647.08
2019-02-07T07:21:44.667Z,100651.89
2019-02-07T07:24:26.192Z,100657.96
2019-02-07T07:27:08.676Z,100658.83
2019-02-07T07:30:01.322Z,100660.58
2019-02-07T07:32:48.545Z,100674.95
2019-02-07T07:35:56.566Z,100672.34
2019-02-07T07:38:55.255Z,100667.99
2019-02-07T07:41:49.028Z,100661.88
2019-02-07T07:44:55.093Z,100672.77
2019-02-07T07:47:46.522Z,100671.91
2019-02-07T07:50:37.407Z,100671.90
2019-02-07T07:53:33.333Z,100678.44
2019-02-07T07:56:27.738Z,100680.63
2019-02-07T07:59:29.813Z,100687.59
2019-02-07T08:02:14.563Z,100691.08
2019-02-07T08:04:57.296Z,100688.02
2019-02-07T08:07:52.739Z,100689.33
2019-02-07T08:10:48.604Z,100687.14
2019-02-07T08:13:31.890Z,100690.64
2019-02-07T08:16:32.825Z,100691.96
2019-02-07T08:19:22.474Z,100690.21
2019-02-07T08:22:33.752Z,100689.76
2019-02-07T08:25:31.499Z,100688.45
2019-02-07T08:28:20.237Z,100695.42
2019-02-07T08:31:11.582Z,100690.64
2019-02-07T08:34:01.265Z,100692.39
2019-02-07T08:36:52.603Z,100699.80
2019-02-07T08:39:38.245Z,100685.84
2019-02-07T08:42:39.082Z,100688.02
2019-02-07T08:45:26.255Z,100697.17
2019-02-07T08:48:15.398Z,100695.01
2019-02-07T08:51:01.038Z,100694.55
2019-02-07T08:54:05.817Z,100691.94
2019-02-07T08:56:58.704Z,100693.70
2019-02-07T08:59:46.610Z,100690.63
2019-02-07T09:02:39.216Z,100694.99
2019-02-07T09:05:21.097Z,100696.32
2019-02-07T09:08:12.691Z,100695.86
2019-02-07T09:11:03.580Z,100696.73
2019-02-07T09:13:57.754Z,100699.36
2019-02-07T09:16:43.038Z,100699.37
2019-02-07T09:19:29.713Z,100696.31
2019-02-07T09:22:27.313Z,100701.54
2019-02-07T09:25:12.634Z,100687.59
2019-02-07T09:28:07.198Z,100688.47
2019-02-07T09:30:50.782Z,100691.08
2019-02-07T09:33:36.429Z,100690.64
2019-02-07T09:36:35.244Z,100695.85
2019-02-07T09:39:25.900Z,100684.55
2019-02-07T09:42:27.615Z,100680.63
2019-02-07T09:45:11.945Z,100676.70
2019-02-07T09:47:57.517Z,100672.78
2019-02-07T09:50:39.764Z,100674.94
2019-02-07T09:53:41.652Z,100665.80
2019-02-07T09:56:34.224Z,100677.13
2019-02-07T09:59:22.685Z,100673.66
2019-02-07T10:02:28.475Z,100682.38
2019-02-07T10:05:21.661Z,100682.38
2019-02-07T10:08:08.151Z,100681.48
2019-02-07T10:11:13.216Z,100683.68
2019-02-07T10:14:04.463Z,100678.45
2019-02-07T10:17:09.288Z,100682.80
2019-02-07T10:19:53.448Z,100681.48
2019-02-07T10:22:40.495Z,100683.22
2019-02-07T10:25:30.377Z,100671.92
2019-02-07T10:28:28.978Z,100678.02
2019-02-07T10:31:26.606Z,100682.78
2019-02-07T10:34:26.517Z,100687.60
2019-02-07T10:37:16.656Z,100690.20
2019-02-07T10:40:02.241Z,100689.77
2019-02-07T10:42:50.956Z,100689.33
2019-02-07T10:45:41.721Z,100682.36
2019-02-07T10:48:27.444Z,100684.98
2019-02-07T10:51:15.129Z,100693.70
2019-02-07T10:53:55.215Z,100691.06
2019-02-07T10:56:43.056Z,100690.20
2019-02-07T10:59:29.068Z,100694.56
2019-02-07T11:02:18.548Z,100692.38
2019-02-07T11:05:07.677Z,100695.86
2019-02-07T11:08:01.366Z,100698.03
2019-02-07T11:10:48.024Z,100705.45
2019-02-07T11:13:37.589Z,100708.92
2019-02-07T11:16:41.947Z,100720.69
2019-02-07T11:19:31.001Z,100707.61
2019-02-07T11:22:11.668Z,100724.17
2019-02-07T11:25:00.100Z,100728.95
2019-02-07T11:27:54.675Z,100724.63
2019-02-07T11:30:41.284Z,100716.77
2019-02-07T11:33:21.720Z,100712.84
2019-02-07T11:36:08.018Z,100715.03
2019-02-07T11:39:00.540Z,100706.75
2019-02-07T11:41:41.735Z,100712.42
2019-02-07T11:44:29.504Z,100709.77
2019-02-07T11:47:16.095Z,100712.84
2019-02-07T11:50:19.908Z,100707.19
2019-02-07T11:53:06.290Z,100702.38
2019-02-07T11:55:54.715Z,100705.44
2019-02-07T11:58:40.116Z,100694.95
2019-02-07T12:01:23.190Z,100692.77
2019-02-07T12:04:00.025Z,100688.41
2019-02-07T12:06:49.498Z,100689.72
2019-02-07T12:09:38.851Z,100685.33
2019-02-07T12:12:24.344Z,100688.39
2019-02-07T12:15:31.992Z,100690.14
2019-02-07T12:18:20.788Z,100693.63
2019-02-07T12:21:09.356Z,100688.81
2019-02-07T12:24:02.115Z,100686.65
2019-02-07T12:26:49.871Z,100688.38
2019-02-07T12:29:43.800Z,100690.55
2019-02-07T12:32:42.819Z,100691.44
2019-02-07T12:35:39.196Z,100687.95
2019-02-07T12:38:38.421Z,100685.33
2019-02-07T12:41:31.324Z,100694.48
2019-02-07T12:44:17.315Z,100686.20
2019-02-07T12:47:02.877Z,100687.94
2019-02-07T12:49:52.886Z,100676.16
2019-02-07T12:52:37.859Z,100677.47
2019-02-07T12:55:12.267Z,100673.55
2019-02-07T12:57:56.858Z,100673.09
2019-02-07T13:00:53.631Z,100676.17
2019-02-07T13:03:56.174Z,100673.98
2019-02-07T13:06:43.770Z,100670.92
2019-02-07T13:09:44.694Z,100667.46
2019-02-07T13:12:25.525Z,100656.55
2019-02-07T13:15:30.680Z,100650.87
2019-02-07T13:18:18.595Z,100651.73
2019-02-07T13:21:09.479Z,100649.55
2019-02-07T13:23:50.903Z,100638.64
2019-02-07T13:26:29.956Z,100642.12
2019-02-07T13:29:11.610Z,100633.84
2019-02-07T13:32:01.559Z,100629.94
2019-02-07T13:34:59.945Z,100622.08
2019-02-07T13:37:47.510Z,100625.95
2019-02-07T13:40:37.231Z,100617.67
2019-02-07T13:43:31.030Z,100616.79
2019-02-07T13:46:23.687Z,100606.77
2019-02-07T13:49:16.845Z,100607.19
2019-02-07T13:52:27.835Z,100604.14
2019-02-07T13:55:11.137Z,100598.91
2019-02-07T13:58:09.366Z,100590.17
2019-02-07T14:00:47.793Z,100581.02
2019-02-07T14:03:34.821Z,100584.94
2019-02-07T14:06:23.649Z,100576.22
2019-02-07T14:09:31.281Z,100573.58
2019-02-07T14:12:24.011Z,100571.84
2019-02-07T14:15:08.933Z,100567.06
2019-02-07T14:18:04.846Z,100568.34
2019-02-07T14:20:53.128Z,100570.96
2019-02-07T14:23:36.556Z,100573.16
2019-02-07T14:26:27.771Z,100564.84
2019-02-07T14:29:12.620Z,100560.48
2019-02-07T14:32:09.474Z,100556.11
2019-02-07T14:34:56.750Z,100553.05
2019-02-07T14:37:52.931Z,100551.31
2019-02-07T14:40:42.296Z,100547.41
2019-02-07T14:43:21.152Z,100546.98
2019-02-07T14:46:13.395Z,100545.67
2019-02-07T14:48:46.437Z,100534.34
2019-02-07T14:51:13.540Z,100535.64
2019-02-07T14:53:42.713Z,100528.68
2019-02-07T14:56:09.801Z,100517.80
2019-02-07T14:58:38.741Z,100526.08
2019-02-07T15:01:07.349Z,100529.58
2019-02-07T15:03:35.539Z,100528.27
2019-02-07T15:06:02.800Z,100526.94
2019-02-07T15:08:29.889Z,100522.16
2019-02-07T15:10:56.982Z,100523.04
2019-02-07T15:13:24.085Z,100517.36
2019-02-07T15:15:52.372Z,100524.35
2019-02-07T15:18:19.772Z,100516.94
2019-02-07T15:20:46.876Z,100513.03
2019-02-07T15:23:13.971Z,100509.10
2019-02-07T15:25:42.263Z,100512.60
2019-02-07T15:28:11.245Z,100505.20
2019-02-07T15:30:40.206Z,100503.88
2019-02-07T15:33:07.335Z,100498.20
2019-02-07T15:35:37.270Z,100506.08
2019-02-07T15:38:04.446Z,100500.84
2019-02-07T15:40:31.538Z,100497.78
2019-02-07T15:43:00.245Z,100502.58
2019-02-07T15:45:27.894Z,100493.87
2019-02-07T15:47:56.084Z,100494.72
2019-02-07T15:50:25.250Z,100496.48
2019-02-07T15:52:56.873Z,100489.05
2019-02-07T15:55:24.061Z,100489.94
2019-02-07T15:57:53.130Z,100484.71
2019-02-07T16:00:46.959Z,100487.33
2019-02-07T16:03:21.316Z,100484.25
2019-02-07T16:05:49.599Z,100471.20
2019-02-07T16:08:16.810Z,100467.27
2019-02-07T16:10:43.902Z,100467.72
2019-02-07T16:13:10.995Z,100465.10
2019-02-07T16:15:39.979Z,100463.34
2019-02-07T16:18:07.587Z,100463.34
2019-02-07T16:20:36.100Z,100456.36
2019-02-07T16:23:05.100Z,100451.13
2019-02-07T16:25:35.427Z,100438.48
2019-02-07T16:28:04.240Z,100443.31
2019-02-07T16:30:37.037Z,100439.38
2019-02-07T16:33:05.264Z,100435.02
2019-02-07T16:35:33.276Z,100431.08
2019-02-07T16:38:03.463Z,100426.71
2019-02-07T16:40:32.546Z,100412.34
2019-02-07T16:43:01.969Z,100418.44
2019-02-07T16:45:36.579Z,100411.48
2019-02-07T16:48:06.638Z,100408.42
2019-02-07T16:50:59.683Z,100403.19
2019-02-07T16:53:22.394Z,100404.05
2019-02-07T16:55:52.499Z,100410.59
2019-02-07T16:58:22.503Z,100409.28
2019-02-07T17:00:51.977Z,100407.09
2019-02-07T17:03:24.040Z,100393.15
2019-02-07T17:06:03.479Z,100384.44
2019-02-07T17:08:32.622Z,100383.10
2019-02-07T17:11:01.032Z,100376.11
2019-02-07T17:13:28.418Z,100374.36
2019-02-07T17:15:58.460Z,100369.60
2019-02-07T17:18:27.996Z,100362.17
2019-02-07T17:21:11.225Z,100357.41
2019-02-07T17:23:40.671Z,100358.27
2019-02-07T17:26:08.271Z,100355.23
2019-02-07T17:28:38.553Z,100351.28
2019-02-07T17:31:11.025Z,100341.27
2019-02-07T17:33:46.876Z,100336.90
2019-02-07T17:36:17.127Z,100329.91
2019-02-07T17:38:45.702Z,100327.29
2019-02-07T17:41:16.050Z,100331.24
2019-02-07T17:43:43.253Z,100326.42
2019-02-07T17:46:12.943Z,100326.01
2019-02-07T17:48:40.707Z,100322.53
2019-02-07T17:51:07.873Z,100313.38
2019-02-07T17:53:35.201Z,100310.76
2019-02-07T17:56:04.899Z,100305.97
2019-02-07T17:58:32.107Z,100290.69
2019-02-07T18:01:04.099Z,100284.59
2019-02-07T18:03:32.035Z,100286.32
2019-02-07T18:05:59.146Z,100275.44
2019-02-07T18:08:29.616Z,100275.00
2019-02-07T18:10:56.803Z,100271.93
2019-02-07T18:13:25.910Z,100263.25
2019-02-07T18:15:57.530Z,100259.30
2019-02-07T18:18:28.007Z,100253.65
2019-02-07T18:20:59.418Z,100256.27
2019-02-07T18:23:31.065Z,100254.52
2019-02-07T18:25:58.466Z,100244.91
2019-02-07T18:28:30.142Z,100249.28
2019-02-07T18:31:06.049Z,100241.43
2019-02-07T18:33:33.210Z,100235.75
2019-02-07T18:36:04.821Z,100231.83
2019-02-07T18:38:32.118Z,100223.98
2019-02-07T18:41:03.838Z,100222.25
2019-02-07T18:43:33.227Z,100216.16
2019-02-07T18:46:06.168Z,100210.48
2019-02-07T18:48:36.146Z,100203.49
2019-02-07T18:51:08.159Z,100197.84
2019-02-07T18:53:38.439Z,100195.65
2019-02-07T18:56:05.534Z,100190.41
2019-02-07T18:58:32.660Z,100193.92
2019-02-07T19:00:59.754Z,100188.69
2019-02-07T19:03:26.910Z,100186.08
2019-02-07T19:05:53.980Z,100172.10
2019-02-07T19:08:21.694Z,100176.05
2019-02-07T19:10:48.803Z,100169.93
2019-02-07T19:13:16.144Z,100169.93
2019-02-07T19:15:46.335Z,100161.67
2019-02-07T19:18:13.434Z,100161.67
2019-02-07T19:20:40.631Z,100154.71
2019-02-07T19:23:08.046Z,100151.20
2019-02-07T19:25:35.251Z,100146.86
2019-02-07T19:28:02.973Z,100139.02
2019-02-07T19:30:30.902Z,100135.95
2019-02-07T19:32:58.563Z,100128.55
2019-02-07T19:35:25.696Z,100129.41
2019-02-07T19:37:54.770Z,100120.70
2019-02-07T19:40:21.980Z,100121.98
2019-02-07T19:42:49.078Z,100118.06
2019-02-07T19:45:17.219Z,100109.31
2019-02-07T19:47:44.345Z,100102.77
2019-02-07T19:50:14.588Z,100101.02
2019-02-07T19:52:41.780Z,100097.52
2019-02-07T19:55:11.710Z,100094.92
2019-02-07T19:57:38.807Z,100091.83
2019-02-07T20:00:09.675Z,100097.06
2019-02-07T20:02:36.774Z,100094.89
2019-02-07T20:05:05.437Z,100087.46
2019-02-07T20:07:32.535Z,100085.25
2019-02-07T20:09:59.832Z,100079.12
2019-02-07T20:12:27.175Z,100069.08
2019-02-07T20:14:54.339Z,100075.61
2019-02-07T20:17:24.228Z,100060.78
2019-02-07T20:19:51.627Z,100059.02
2019-02-07T20:22:20.465Z,100055.13
2019-02-07T20:24:47.731Z,100048.14
2019-02-07T20:27:14.906Z,100042.42
2019-02-07T20:29:42.130Z,100043.32
2019-02-07T20:32:13.048Z,100030.65
2019-02-07T20:34:44.287Z,100033.72
2019-02-07T20:37:13.944Z,100026.73
2019-02-07T20:39:45.540Z,100024.59
2019-02-07T20:42:15.917Z,100023.73
2019-02-07T20:44:48.771Z,100015.84
2019-02-07T20:47:16.068Z,100016.27
2019-02-07T20:49:43.166Z,100006.23
2019-02-07T20:52:13.339Z,100010.17
2019-02-07T20:54:40.682Z,100011.96
2019-02-07T20:57:09.112Z,100008.89
2019-02-07T20:59:36.475Z,100004.11
2019-02-07T21:02:12.080Z,99995.41
2019-02-07T21:04:39.198Z,99991.89
2019-02-07T21:07:06.859Z,99997.08
2019-02-07T21:09:34.631Z,99989.72
2019-02-07T21:12:01.821Z,99982.69
2019-02-07T21:14:30.094Z,99976.16
2019-02-07T21:16:59.859Z,99982.25
2019-02-07T21:19:30.204Z,99974.39
2019-02-07T21:21:59.694Z,99973.98
2019-02-07T21:24:28.656Z,99968.75
2019-02-07T21:26:59.237Z,99972.31
2019-02-07T21:29:31.433Z,99964.88
2019-02-07T21:32:13.192Z,99962.30
2019-02-07T21:34:40.411Z,99966.22
2019-02-07T21:37:12.343Z,99970.63
2019-02-07T21:39:42.748Z,99962.73
2019-02-07T21:42:12.171Z,99967.12
2019-02-07T21:44:39.277Z,99968.84
2019-02-07T21:47:06.505Z,99959.23
2019-02-07T21:49:33.625Z,99956.28
2019-02-07T21:52:05.756Z,99961.06
2019-02-07T21:54:35.637Z,99950.56
2019-02-07T21:57:04.547Z,99951.02
2019-02-07T21:59:33.868Z,99951.09
2019-02-07T22:02:00.957Z,99945.33
2019-02-07T22:04:28.249Z,99946.72
2019-02-07T22:07:02.425Z,99954.16
2019-02-07T22:09:33.870Z,99941.97
2019-02-07T22:12:06.152Z,99933.77
2019-02-07T22:14:33.317Z,99925.87
2019-02-07T22:17:09.401Z,99925.87
2019-02-07T22:19:41.655Z,99926.33
2019-02-07T22:22:10.266Z,99917.25
2019-02-07T22:24:43.644Z,99920.27
2019-02-07T22:27:10.906Z,99922.84
2019-02-07T22:30:04.264Z,99925.95
2019-02-07T22:32:36.837Z,99927.26
2019-02-07T22:35:06.187Z,99921.17
2019-02-07T22:37:37.987Z,99920.72
2019-02-07T22:40:07.573Z,99916.87
2019-02-07T22:42:37.420Z,99916.02
2019-02-07T22:45:08.437Z,99914.75
2019-02-07T22:47:37.815Z,99902.58
2019-02-07T22:50:11.789Z,99895.67
2019-02-07T22:52:39.654Z,99892.16
2019-02-07T22:55:07.208Z,99892.23
2019-02-07T22:57:34.380Z,99894.84
2019-02-07T23:00:01.896Z,99888.80
2019-02-07T23:02:29.297Z,99878.75
2019-02-07T23:04:59.069Z,99867.10
2019-02-07T23:07:30.136Z,99868.94
2019-02-07T23:09:59.915Z,99882.49
2019-02-07T23:12:29.979Z,99872.82
2019-02-07T23:15:00.330Z,99874.13
2019-02-07T23:17:27.676Z,99882.83
2019-02-07T23:20:03.292Z,99871.06
2019-02-07T23:22:31.691Z,99874.20
2019-02-07T23:24:59.783Z,99865.05
2019-02-07T23:27:31.253Z,99865.05
2019-02-07T23:29:59.591Z,99858.11
2019-02-07T23:32:34.019Z,99849.45
2019-02-07T23:35:03.715Z,99846.80
2019-02-07T23:37:36.402Z,99841.20
2019-02-07T23:40:09.871Z,99839.89
2019-02-07T23:42:42.981Z,99843.36
2019-02-07T23:45:12.094Z,99829.44
2019-02-07T23:47:39.651Z,99835.94
2019-02-07T23:50:09.899Z,99835.04
2019-02-07T23:52:40.746Z,99822.45
2019-02-07T23:55:11.109Z,99818.05
2019-02-07T23:57:41.869Z,99813.31
